< < Back
Terminal Aerodrome Forecast


Current Version              Previous Versions:   1  2  3  4  5  6  7  8  9  

Terminal Aerodrome Forecast

097
FTUS42 KFFC 291100
TAFATL
TAF
KATL 291137Z 2912/3018 VRB03KT P6SM FEW250
     FM291600 19004KT P6SM FEW060 FEW250
     FM291900 17005KT P6SM FEW070 SCT250
     FM300000 17003KT P6SM SCT070 SCT250
     FM301500 17005KT P6SM BKN060 PROB30 3015/3018 -SHRA=

Latest METAR

735
SAUS70 KWBC 291200 RRG
MTRATL
METAR KATL 291152Z 09003KT 10SM FEW250 21/16 A3008 RMK AO2 SLP175
T02110156 10256 20200 51012


USA.gov is the U.S. government's official web portal to all federal, state and local government web resources and services.